sensor_id;sensor_type;location;lat;lon;timestamp;pressure;altitude;pressure_sealevel;temperature;humidity
16461;BME280;8341;42.048;24.650;2024-01-15T14:49:42;96223.47;;;2.56;86.94
16461;BME280;8341;42.048;24.650;2024-01-15T14:52:09;96229.50;;;2.69;87.33
16461;BME280;8341;42.048;24.650;2024-01-15T14:54:36;96213.38;;;2.78;85.88
16461;BME280;8341;42.048;24.650;2024-01-15T14:57:04;96227.63;;;2.97;85.99
16461;BME280;8341;42.048;24.650;2024-01-15T14:59:31;96220.59;;;2.99;84.20
16461;BME280;8341;42.048;24.650;2024-01-15T15:01:58;96225.06;;;2.93;84.57
16461;BME280;8341;42.048;24.650;2024-01-15T15:04:25;96231.78;;;2.89;84.30
16461;BME280;8341;42.048;24.650;2024-01-15T15:06:53;96237.34;;;3.03;83.93
16461;BME280;8341;42.048;24.650;2024-01-15T15:09:21;96233.34;;;3.17;83.18
16461;BME280;8341;42.048;24.650;2024-01-15T15:11:48;96239.94;;;3.34;82.65
16461;BME280;8341;42.048;24.650;2024-01-15T15:14:17;96235.00;;;3.42;82.70
16461;BME280;8341;42.048;24.650;2024-01-15T15:16:44;96232.91;;;3.46;82.25
16461;BME280;8341;42.048;24.650;2024-01-15T15:19:12;96240.41;;;3.60;81.09
16461;BME280;8341;42.048;24.650;2024-01-15T15:21:39;96238.13;;;3.67;80.67
16461;BME280;8341;42.048;24.650;2024-01-15T15:24:07;96232.31;;;3.69;80.59
16461;BME280;8341;42.048;24.650;2024-01-15T15:26:34;96232.75;;;3.76;80.44
16461;BME280;8341;42.048;24.650;2024-01-15T15:29:02;96232.91;;;3.82;79.24
16461;BME280;8341;42.048;24.650;2024-01-15T15:31:29;96239.63;;;3.87;78.92
16461;BME280;8341;42.048;24.650;2024-01-15T15:33:56;96236.78;;;3.90;78.00
16461;BME280;8341;42.048;24.650;2024-01-15T15:36:23;96243.97;;;3.84;78.27
16461;BME280;8341;42.048;24.650;2024-01-15T15:38:50;96232.28;;;3.96;78.18
16461;BME280;8341;42.048;24.650;2024-01-15T15:41:19;96227.34;;;3.86;78.46
16461;BME280;8341;42.048;24.650;2024-01-15T15:43:46;96217.63;;;3.70;78.19
16461;BME280;8341;42.048;24.650;2024-01-15T15:46:13;96227.19;;;3.80;77.69
16461;BME280;8341;42.048;24.650;2024-01-15T15:48:40;96215.81;;;3.76;77.47
16461;BME280;8341;42.048;24.650;2024-01-15T15:51:09;96229.59;;;3.78;78.04
16461;BME280;8341;42.048;24.650;2024-01-15T15:53:36;96220.63;;;3.90;77.08
16461;BME280;8341;42.048;24.650;2024-01-15T15:56:03;96223.31;;;3.81;77.16
16461;BME280;8341;42.048;24.650;2024-01-15T15:58:33;96239.50;;;3.90;77.63
16461;BME280;8341;42.048;24.650;2024-01-15T16:01:00;96232.44;;;3.93;76.82
16461;BME280;8341;42.048;24.650;2024-01-15T16:03:27;96237.22;;;3.98;77.34
16461;BME280;8341;42.048;24.650;2024-01-15T16:05:54;96240.69;;;3.89;77.42
16461;BME280;8341;42.048;24.650;2024-01-15T16:08:21;96231.41;;;3.72;77.76
16461;BME280;8341;42.048;24.650;2024-01-15T16:10:48;96221.06;;;3.70;77.69
16461;BME280;8341;42.048;24.650;2024-01-15T16:13:16;96220.81;;;3.59;78.83
16461;BME280;8341;42.048;24.650;2024-01-15T16:15:45;96228.13;;;3.68;78.18
16461;BME280;8341;42.048;24.650;2024-01-15T16:18:12;96211.34;;;3.55;78.77
16461;BME280;8341;42.048;24.650;2024-01-15T16:20:39;96213.16;;;3.49;78.71
16461;BME280;8341;42.048;24.650;2024-01-15T16:23:07;96207.59;;;3.52;77.64
16461;BME280;8341;42.048;24.650;2024-01-15T16:25:34;96207.16;;;3.54;77.15
16461;BME280;8341;42.048;24.650;2024-01-15T16:28:03;96200.28;;;3.62;77.11
16461;BME280;8341;42.048;24.650;2024-01-15T16:30:30;96191.59;;;3.67;77.53
16461;BME280;8341;42.048;24.650;2024-01-15T16:32:59;96193.38;;;3.61;78.34
16461;BME280;8341;42.048;24.650;2024-01-15T16:35:26;96186.81;;;3.44;79.25
16461;BME280;8341;42.048;24.650;2024-01-15T16:37:53;96185.16;;;3.55;79.47
16461;BME280;8341;42.048;24.650;2024-01-15T16:40:20;96186.22;;;3.31;81.03
16461;BME280;8341;42.048;24.650;2024-01-15T16:42:48;96191.41;;;2.98;82.32
16461;BME280;8341;42.048;24.650;2024-01-15T16:45:15;96179.13;;;2.88;82.08
16461;BME280;8341;42.048;24.650;2024-01-15T16:47:42;96192.78;;;3.02;81.84
16461;BME280;8341;42.048;24.650;2024-01-15T16:50:10;96167.19;;;3.07;81.87
16461;BME280;8341;42.048;24.650;2024-01-15T16:52:37;96182.47;;;3.10;81.60
16461;BME280;8341;42.048;24.650;2024-01-15T16:55:05;96199.25;;;3.23;81.71
16461;BME280;8341;42.048;24.650;2024-01-15T16:57:32;96181.72;;;3.09;82.00
16461;BME280;8341;42.048;24.650;2024-01-15T16:59:59;96182.25;;;2.68;83.41
16461;BME280;8341;42.048;24.650;2024-01-15T17:02:27;96178.38;;;2.78;83.61
16461;BME280;8341;42.048;24.650;2024-01-15T17:04:54;96193.06;;;2.95;82.74
16461;BME280;8341;42.048;24.650;2024-01-15T17:07:22;96188.59;;;2.92;83.23
16461;BME280;8341;42.048;24.650;2024-01-15T17:09:49;96201.59;;;2.94;84.31
16461;BME280;8341;42.048;24.650;2024-01-15T17:12:16;96195.63;;;2.90;84.93
16461;BME280;8341;42.048;24.650;2024-01-15T17:14:44;96195.44;;;2.84;85.00
16461;BME280;8341;42.048;24.650;2024-01-15T17:17:11;96181.38;;;2.80;85.36
16461;BME280;8341;42.048;24.650;2024-01-15T17:19:41;96188.84;;;2.85;84.73
16461;BME280;8341;42.048;24.650;2024-01-15T17:22:08;96175.06;;;2.65;86.05
16461;BME280;8341;42.048;24.650;2024-01-15T17:24:36;96174.31;;;2.65;86.07
16461;BME280;8341;42.048;24.650;2024-01-15T17:27:03;96172.66;;;2.67;85.95
16461;BME280;8341;42.048;24.650;2024-01-15T17:29:30;96168.19;;;2.64;85.96
16461;BME280;8341;42.048;24.650;2024-01-15T17:31:57;96170.72;;;2.59;85.58
16461;BME280;8341;42.048;24.650;2024-01-15T17:34:24;96159.03;;;2.52;86.68
16461;BME280;8341;42.048;24.650;2024-01-15T17:36:51;96166.22;;;2.56;86.45
16461;BME280;8341;42.048;24.650;2024-01-15T17:39:18;96152.00;;;2.46;87.41
16461;BME280;8341;42.048;24.650;2024-01-15T17:41:47;96160.97;;;2.52;87.01
16461;BME280;8341;42.048;24.650;2024-01-15T17:44:14;96156.13;;;2.29;88.42
16461;BME280;8341;42.048;24.650;2024-01-15T17:46:41;96148.38;;;2.31;89.08
16461;BME280;8341;42.048;24.650;2024-01-15T17:49:09;96153.09;;;2.18;89.47
16461;BME280;8341;42.048;24.650;2024-01-15T17:51:36;96143.84;;;2.19;89.61
16461;BME280;8341;42.048;24.650;2024-01-15T17:54:03;96150.59;;;2.23;89.24
16461;BME280;8341;42.048;24.650;2024-01-15T17:56:34;96138.03;;;2.29;88.71
16461;BME280;8341;42.048;24.650;2024-01-15T17:59:02;96125.06;;;2.28;89.14
16461;BME280;8341;42.048;24.650;2024-01-15T18:01:29;96140.25;;;2.22;89.35
16461;BME280;8341;42.048;24.650;2024-01-15T18:03:59;96122.78;;;2.26;89.03
16461;BME280;8341;42.048;24.650;2024-01-15T18:06:28;96132.34;;;2.18;90.03
16461;BME280;8341;42.048;24.650;2024-01-15T18:08:55;96136.09;;;2.21;89.21
16461;BME280;8341;42.048;24.650;2024-01-15T18:11:22;96146.41;;;2.31;88.78
16461;BME280;8341;42.048;24.650;2024-01-15T18:13:50;96141.19;;;2.28;90.06
16461;BME280;8341;42.048;24.650;2024-01-15T18:16:19;96140.03;;;2.38;89.64
16461;BME280;8341;42.048;24.650;2024-01-15T18:18:48;96138.69;;;2.42;88.90
16461;BME280;8341;42.048;24.650;2024-01-15T18:21:17;96143.19;;;2.45;88.80
16461;BME280;8341;42.048;24.650;2024-01-15T18:23:44;96143.00;;;2.40;88.76
16461;BME280;8341;42.048;24.650;2024-01-15T18:26:12;96130.09;;;2.17;89.79
16461;BME280;8341;42.048;24.650;2024-01-15T18:28:39;96137.16;;;2.32;90.06
16461;BME280;8341;42.048;24.650;2024-01-15T18:31:06;96123.88;;;2.38;89.75
16461;BME280;8341;42.048;24.650;2024-01-15T18:33:35;96135.22;;;2.33;88.71
16461;BME280;8341;42.048;24.650;2024-01-15T18:36:02;96125.38;;;2.39;88.52
16461;BME280;8341;42.048;24.650;2024-01-15T18:38:29;96125.09;;;2.46;88.24
16461;BME280;8341;42.048;24.650;2024-01-15T18:40:59;96126.28;;;2.45;88.72
16461;BME280;8341;42.048;24.650;2024-01-15T18:43:29;96116.56;;;2.47;88.33
16461;BME280;8341;42.048;24.650;2024-01-15T18:45:56;96121.81;;;2.51;88.67
16461;BME280;8341;42.048;24.650;2024-01-15T18:48:23;96122.56;;;2.51;88.40
16461;BME280;8341;42.048;24.650;2024-01-15T18:50:51;96114.34;;;2.46;88.60
16461;BME280;8341;42.048;24.650;2024-01-15T18:53:18;96114.03;;;2.53;87.29
16461;BME280;8341;42.048;24.650;2024-01-15T18:55:45;96112.25;;;2.50;87.30
16461;BME280;8341;42.048;24.650;2024-01-15T18:58:12;96098.34;;;2.42;86.38
16461;BME280;8341;42.048;24.650;2024-01-15T19:00:40;96115.84;;;2.56;86.42
16461;BME280;8341;42.048;24.650;2024-01-15T19:03:07;96105.69;;;2.51;87.01
16461;BME280;8341;42.048;24.650;2024-01-15T19:05:34;96090.97;;;2.34;86.94
16461;BME280;8341;42.048;24.650;2024-01-15T19:08:02;96101.44;;;2.32;87.63
16461;BME280;8341;42.048;24.650;2024-01-15T19:10:29;96085.31;;;2.32;87.84
16461;BME280;8341;42.048;24.650;2024-01-15T19:12:57;96086.00;;;2.14;87.98
16461;BME280;8341;42.048;24.650;2024-01-15T19:15:24;96077.06;;;2.17;87.79
16461;BME280;8341;42.048;24.650;2024-01-15T19:17:52;96089.16;;;2.22;88.53
16461;BME280;8341;42.048;24.650;2024-01-15T19:20:19;96091.31;;;2.36;88.77
16461;BME280;8341;42.048;24.650;2024-01-15T19:22:47;96094.91;;;2.51;88.99
16461;BME280;8341;42.048;24.650;2024-01-15T19:25:16;96089.25;;;2.58;88.61
16461;BME280;8341;42.048;24.650;2024-01-15T19:27:42;96083.09;;;2.58;87.26
16461;BME280;8341;42.048;24.650;2024-01-15T19:30:12;96072.47;;;2.45;86.64
16461;BME280;8341;42.048;24.650;2024-01-15T19:32:40;96072.34;;;2.58;86.33
16461;BME280;8341;42.048;24.650;2024-01-15T19:35:08;96082.38;;;2.75;86.02
16461;BME280;8341;42.048;24.650;2024-01-15T19:37:35;96077.31;;;2.77;86.55
16461;BME280;8341;42.048;24.650;2024-01-15T19:40:04;96069.94;;;2.78;86.94
16461;BME280;8341;42.048;24.650;2024-01-15T19:42:33;96064.72;;;2.83;87.04
16461;BME280;8341;42.048;24.650;2024-01-15T19:45:00;96064.75;;;2.92;86.69
16461;BME280;8341;42.048;24.650;2024-01-15T19:47:27;96049.78;;;2.82;86.18
16461;BME280;8341;42.048;24.650;2024-01-15T19:49:54;96057.88;;;2.82;85.85
16461;BME280;8341;42.048;24.650;2024-01-15T19:52:21;96064.91;;;2.80;85.95
16461;BME280;8341;42.048;24.650;2024-01-15T19:54:48;96049.34;;;2.75;85.85
16461;BME280;8341;42.048;24.650;2024-01-15T19:57:15;96046.34;;;2.82;84.50
16461;BME280;8341;42.048;24.650;2024-01-15T19:59:43;96050.97;;;2.90;84.42
16461;BME280;8341;42.048;24.650;2024-01-15T20:02:13;96056.63;;;3.01;83.60
16461;BME280;8341;42.048;24.650;2024-01-15T20:04:40;96035.84;;;2.93;82.83
16461;BME280;8341;42.048;24.650;2024-01-15T20:07:07;96044.69;;;2.93;82.00
16461;BME280;8341;42.048;24.650;2024-01-15T20:09:35;96039.88;;;3.06;81.86
16461;BME280;8341;42.048;24.650;2024-01-15T20:12:03;96036.31;;;3.00;83.51
16461;BME280;8341;42.048;24.650;2024-01-15T20:14:31;96038.22;;;3.09;83.51
16461;BME280;8341;42.048;24.650;2024-01-15T20:16:59;96037.47;;;3.08;83.22
16461;BME280;8341;42.048;24.650;2024-01-15T20:19:26;96033.00;;;2.96;82.98
16461;BME280;8341;42.048;24.650;2024-01-15T20:21:53;96037.06;;;2.74;82.99
16461;BME280;8341;42.048;24.650;2024-01-15T20:24:20;96027.78;;;2.93;82.67
16461;BME280;8341;42.048;24.650;2024-01-15T20:26:49;96020.00;;;2.86;83.46
16461;BME280;8341;42.048;24.650;2024-01-15T20:29:16;96034.97;;;3.05;83.62
16461;BME280;8341;42.048;24.650;2024-01-15T20:31:44;96024.00;;;3.08;83.75
16461;BME280;8341;42.048;24.650;2024-01-15T20:34:13;96030.47;;;3.02;83.24
16461;BME280;8341;42.048;24.650;2024-01-15T20:36:40;96029.44;;;2.99;82.73
16461;BME280;8341;42.048;24.650;2024-01-15T20:39:08;96028.84;;;2.86;81.24
16461;BME280;8341;42.048;24.650;2024-01-15T20:41:35;96020.75;;;3.04;81.76
16461;BME280;8341;42.048;24.650;2024-01-15T20:44:02;96008.78;;;2.96;82.60
16461;BME280;8341;42.048;24.650;2024-01-15T20:46:29;96010.28;;;2.97;83.30
16461;BME280;8341;42.048;24.650;2024-01-15T20:48:56;95994.28;;;2.94;83.56
16461;BME280;8341;42.048;24.650;2024-01-15T20:51:24;95996.56;;;2.77;83.84
16461;BME280;8341;42.048;24.650;2024-01-15T20:53:51;95997.16;;;2.72;83.98
16461;BME280;8341;42.048;24.650;2024-01-15T20:56:19;95990.56;;;2.73;83.09
16461;BME280;8341;42.048;24.650;2024-01-15T20:58:46;95998.94;;;2.66;82.45
16461;BME280;8341;42.048;24.650;2024-01-15T21:01:13;95980.09;;;2.75;82.62
16461;BME280;8341;42.048;24.650;2024-01-15T21:03:42;95985.31;;;2.79;83.55
16461;BME280;8341;42.048;24.650;2024-01-15T21:06:09;95993.53;;;2.75;84.63
16461;BME280;8341;42.048;24.650;2024-01-15T21:08:37;95992.06;;;2.74;85.01
16461;BME280;8341;42.048;24.650;2024-01-15T21:11:06;95988.78;;;2.34;85.89
16461;BME280;8341;42.048;24.650;2024-01-15T21:13:33;96006.09;;;2.24;86.02
16461;BME280;8341;42.048;24.650;2024-01-15T21:16:00;95998.34;;;2.35;86.50
16461;BME280;8341;42.048;24.650;2024-01-15T21:18:27;96005.69;;;2.43;86.11
16461;BME280;8341;42.048;24.650;2024-01-15T21:20:54;95992.81;;;2.47;85.40
16461;BME280;8341;42.048;24.650;2024-01-15T21:23:21;95996.84;;;2.43;84.32
16461;BME280;8341;42.048;24.650;2024-01-15T21:25:50;95993.25;;;2.55;82.99
16461;BME280;8341;42.048;24.650;2024-01-15T21:28:17;95974.56;;;2.61;82.73
16461;BME280;8341;42.048;24.650;2024-01-15T21:30:44;95981.28;;;2.65;83.42
16461;BME280;8341;42.048;24.650;2024-01-15T21:33:12;95990.69;;;2.70;82.68
16461;BME280;8341;42.048;24.650;2024-01-15T21:35:39;95996.84;;;2.34;84.06
16461;BME280;8341;42.048;24.650;2024-01-15T21:38:06;95989.06;;;2.09;85.50
16461;BME280;8341;42.048;24.650;2024-01-15T21:40:34;95983.09;;;2.32;84.27
16461;BME280;8341;42.048;24.650;2024-01-15T21:43:02;95978.91;;;2.13;85.00
16461;BME280;8341;42.048;24.650;2024-01-15T21:45:30;95981.75;;;2.27;84.10
16461;BME280;8341;42.048;24.650;2024-01-15T21:47:57;95978.00;;;2.34;84.94
16461;BME280;8341;42.048;24.650;2024-01-15T21:50:24;95988.47;;;2.32;85.71
16461;BME280;8341;42.048;24.650;2024-01-15T21:52:51;95989.25;;;2.23;86.08
16461;BME280;8341;42.048;24.650;2024-01-15T21:55:18;95989.34;;;2.11;86.21
16461;BME280;8341;42.048;24.650;2024-01-15T21:57:45;95993.84;;;2.14;85.86
16461;BME280;8341;42.048;24.650;2024-01-15T22:00:16;95984.28;;;2.13;85.40
16461;BME280;8341;42.048;24.650;2024-01-15T22:02:44;95972.16;;;2.08;86.96
16461;BME280;8341;42.048;24.650;2024-01-15T22:05:11;95973.09;;;2.05;87.71
16461;BME280;8341;42.048;24.650;2024-01-15T22:07:40;95963.31;;;1.80;88.79
16461;BME280;8341;42.048;24.650;2024-01-15T22:10:10;95959.78;;;1.93;88.61
16461;BME280;8341;42.048;24.650;2024-01-15T22:12:37;95948.69;;;1.90;88.22
16461;BME280;8341;42.048;24.650;2024-01-15T22:15:04;95941.25;;;1.95;87.90
16461;BME280;8341;42.048;24.650;2024-01-15T22:17:33;95934.81;;;1.83;88.38
16461;BME280;8341;42.048;24.650;2024-01-15T22:20:00;95932.91;;;1.93;88.17
16461;BME280;8341;42.048;24.650;2024-01-15T22:22:27;95926.94;;;1.98;88.37
16461;BME280;8341;42.048;24.650;2024-01-15T22:24:54;95928.09;;;1.97;87.42
16461;BME280;8341;42.048;24.650;2024-01-15T22:27:21;95939.75;;;1.94;88.03
16461;BME280;8341;42.048;24.650;2024-01-15T22:29:48;95938.56;;;2.04;87.23
16461;BME280;8341;42.048;24.650;2024-01-15T22:32:17;95924.38;;;1.94;86.92
16461;BME280;8341;42.048;24.650;2024-01-15T22:34:45;95931.25;;;1.95;86.54
16461;BME280;8341;42.048;24.650;2024-01-15T22:37:14;95928.44;;;2.08;87.16
16461;BME280;8341;42.048;24.650;2024-01-15T22:39:41;95915.88;;;2.05;87.46
16461;BME280;8341;42.048;24.650;2024-01-15T22:42:08;95919.59;;;1.98;88.26
16461;BME280;8341;42.048;24.650;2024-01-15T22:44:35;95935.91;;;2.13;87.63
16461;BME280;8341;42.048;24.650;2024-01-15T22:47:02;95925.41;;;2.06;87.63
16461;BME280;8341;42.048;24.650;2024-01-15T22:49:29;95925.72;;;2.08;89.03
16461;BME280;8341;42.048;24.650;2024-01-15T22:51:58;95927.16;;;1.63;91.01
16461;BME280;8341;42.048;24.650;2024-01-15T22:54:25;95943.50;;;1.87;89.89
16461;BME280;8341;42.048;24.650;2024-01-15T22:56:52;95922.72;;;1.87;90.28
16461;BME280;8341;42.048;24.650;2024-01-15T22:59:18;95925.28;;;2.00;89.46
16461;BME280;8341;42.048;24.650;2024-01-15T23:01:46;95932.59;;;2.09;88.60
16461;BME280;8341;42.048;24.650;2024-01-15T23:04:13;95931.25;;;2.04;88.47
16461;BME280;8341;42.048;24.650;2024-01-15T23:06:40;95922.44;;;2.13;88.53
16461;BME280;8341;42.048;24.650;2024-01-15T23:09:09;95919.44;;;2.02;88.44
16461;BME280;8341;42.048;24.650;2024-01-15T23:11:36;95910.19;;;2.12;88.34
16461;BME280;8341;42.048;24.650;2024-01-15T23:14:03;95895.84;;;2.06;89.13
16461;BME280;8341;42.048;24.650;2024-01-15T23:16:30;95888.69;;;2.12;88.57
16461;BME280;8341;42.048;24.650;2024-01-15T23:18:57;95894.66;;;2.25;87.94
16461;BME280;8341;42.048;24.650;2024-01-15T23:21:24;95888.69;;;2.21;88.10
16461;BME280;8341;42.048;24.650;2024-01-15T23:23:52;95879.44;;;2.13;87.93
16461;BME280;8341;42.048;24.650;2024-01-15T23:26:21;95885.69;;;2.28;87.56
16461;BME280;8341;42.048;24.650;2024-01-15T23:28:48;95876.13;;;2.27;87.25
16461;BME280;8341;42.048;24.650;2024-01-15T23:31:15;95886.13;;;2.35;86.08
16461;BME280;8341;42.048;24.650;2024-01-15T23:33:42;95870.75;;;2.27;86.03
16461;BME280;8341;42.048;24.650;2024-01-15T23:36:09;95884.78;;;2.22;85.15
16461;BME280;8341;42.048;24.650;2024-01-15T23:38:37;95891.94;;;2.34;84.68
16461;BME280;8341;42.048;24.650;2024-01-15T23:41:04;95885.81;;;2.42;84.05
16461;BME280;8341;42.048;24.650;2024-01-15T23:43:33;95885.63;;;2.55;83.31
16461;BME280;8341;42.048;24.650;2024-01-15T23:46:01;95879.34;;;2.58;83.11
16461;BME280;8341;42.048;24.650;2024-01-15T23:48:28;95884.00;;;2.58;81.97
16461;BME280;8341;42.048;24.650;2024-01-15T23:50:55;95876.09;;;2.54;82.01
16461;BME280;8341;42.048;24.650;2024-01-15T23:53:22;95882.34;;;2.60;81.51
16461;BME280;8341;42.048;24.650;2024-01-15T23:55:49;95862.03;;;2.59;81.24
16461;BME280;8341;42.048;24.650;2024-01-15T23:58:16;95862.28;;;2.70;79.99
